createdAt,value
2017-08-13T00:02:24.004Z,-65
2017-08-13T00:04:51.475Z,-58
2017-08-13T00:07:18.660Z,-64
2017-08-13T00:09:46.072Z,-61
2017-08-13T00:12:13.246Z,-60
2017-08-13T00:14:40.415Z,-64
2017-08-13T00:17:08.049Z,-62
2017-08-13T00:19:35.289Z,-62
2017-08-13T00:22:02.748Z,-61
2017-08-13T00:24:30.206Z,-63
2017-08-13T00:26:57.378Z,-62
2017-08-13T00:29:24.552Z,-63
2017-08-13T00:31:52.276Z,-62
2017-08-13T00:34:19.797Z,-64
2017-08-13T00:36:46.969Z,-64
2017-08-13T00:39:14.137Z,-63
2017-08-13T00:41:41.480Z,-63
2017-08-13T00:44:08.990Z,-64
2017-08-13T00:46:36.508Z,-60
2017-08-13T00:49:03.695Z,-60
2017-08-13T00:51:30.884Z,-60
2017-08-13T00:53:58.162Z,-61
2017-08-13T00:56:25.613Z,-61
2017-08-13T00:58:53.385Z,-62
2017-08-13T01:01:20.572Z,-58
2017-08-13T01:03:47.760Z,-61
2017-08-13T01:06:14.943Z,-60
2017-08-13T01:08:42.280Z,-63
2017-08-13T01:11:09.449Z,-65
2017-08-13T01:13:36.617Z,-62
2017-08-13T01:16:04.040Z,-59
2017-08-13T01:18:31.209Z,-60
2017-08-13T01:20:58.393Z,-63
2017-08-13T01:23:25.796Z,-62
2017-08-13T01:25:53.285Z,-65
2017-08-13T01:28:20.719Z,-60
2017-08-13T01:30:48.228Z,-57
2017-08-13T01:33:15.396Z,-63
2017-08-13T01:35:43.093Z,-60
2017-08-13T01:38:10.279Z,-63
2017-08-13T01:40:37.687Z,-61
2017-08-13T01:43:05.149Z,-62
2017-08-13T01:45:32.332Z,-61
2017-08-13T01:47:59.745Z,-62
2017-08-13T01:50:27.269Z,-64
2017-08-13T01:52:54.672Z,-54
2017-08-13T01:55:22.006Z,-63
2017-08-13T01:57:49.592Z,-64
2017-08-13T02:00:17.044Z,-59
2017-08-13T02:02:44.495Z,-64
2017-08-13T02:05:12.022Z,-63
2017-08-13T02:07:39.203Z,-56
2017-08-13T02:10:06.396Z,-64
2017-08-13T02:12:33.584Z,-60
2017-08-13T02:15:00.753Z,-62
2017-08-13T02:17:28.011Z,-57
2017-08-13T02:19:55.195Z,-62
2017-08-13T02:22:22.365Z,-59
2017-08-13T02:24:49.549Z,-58
2017-08-13T02:27:16.984Z,-58
2017-08-13T02:29:44.502Z,-62
2017-08-13T02:32:11.673Z,-63
2017-08-13T02:34:38.842Z,-63
2017-08-13T02:37:06.449Z,-63
2017-08-13T02:39:33.652Z,-61
2017-08-13T02:42:00.837Z,-60
2017-08-13T02:44:28.382Z,-58
2017-08-13T02:46:55.971Z,-64
2017-08-13T02:49:23.180Z,-60
2017-08-13T02:51:50.572Z,-63
2017-08-13T02:54:17.756Z,-64
2017-08-13T02:56:45.371Z,-60
2017-08-13T02:59:12.949Z,-63
2017-08-13T03:01:40.117Z,-61
2017-08-13T03:04:07.623Z,-60
2017-08-13T03:06:35.004Z,-64
2017-08-13T03:09:02.258Z,-64
2017-08-13T03:11:29.443Z,-63
2017-08-13T03:13:56.970Z,-64
2017-08-13T03:16:24.220Z,-55
2017-08-13T03:18:51.879Z,-64
2017-08-13T03:21:19.120Z,-60
2017-08-13T03:23:46.365Z,-63
2017-08-13T03:26:13.744Z,-63
2017-08-13T03:28:41.207Z,-63
2017-08-13T03:31:08.656Z,-64
2017-08-13T03:33:36.429Z,-61
2017-08-13T03:36:04.077Z,-65
2017-08-13T03:38:31.253Z,-61
2017-08-13T03:40:58.431Z,-61
2017-08-13T03:43:25.951Z,-62
2017-08-13T03:45:53.121Z,-65
2017-08-13T03:48:20.541Z,-63
2017-08-13T03:50:48.009Z,-58
2017-08-13T03:53:15.191Z,-64
2017-08-13T03:55:42.668Z,-61
2017-08-13T03:58:10.071Z,-63
2017-08-13T04:00:37.255Z,-62
2017-08-13T04:03:04.993Z,-64
2017-08-13T04:05:32.637Z,-60
2017-08-13T04:08:00.215Z,-60
2017-08-13T04:10:27.877Z,-59
2017-08-13T04:12:55.437Z,-53
2017-08-13T04:15:22.627Z,-60
2017-08-13T04:17:50.035Z,-60
2017-08-13T04:20:17.745Z,-58
2017-08-13T04:22:44.958Z,-62
2017-08-13T04:25:12.409Z,-58
2017-08-13T04:27:39.869Z,-58
2017-08-13T04:30:07.036Z,-57
2017-08-13T04:32:34.209Z,-58
2017-08-13T04:35:01.629Z,-59
2017-08-13T04:37:29.087Z,-63
2017-08-13T04:39:56.550Z,-64
2017-08-13T04:42:23.994Z,-55
2017-08-13T04:44:51.645Z,-61
2017-08-13T04:47:18.835Z,-53
2017-08-13T04:49:46.058Z,-60
2017-08-13T04:52:13.648Z,-59
2017-08-13T04:54:40.843Z,-65
2017-08-13T04:57:08.435Z,-53
2017-08-13T04:59:35.882Z,-64
2017-08-13T05:02:03.053Z,-60
2017-08-13T05:04:30.696Z,-57
2017-08-13T05:06:57.865Z,-55
2017-08-13T05:09:25.297Z,-64
2017-08-13T05:11:52.773Z,-53
2017-08-13T05:14:19.945Z,-58
2017-08-13T05:16:47.326Z,-54
2017-08-13T05:19:14.629Z,-54
2017-08-13T05:21:42.080Z,-58
2017-08-13T05:24:09.536Z,-58
2017-08-13T05:26:37.196Z,-61
2017-08-13T05:29:04.514Z,-53
2017-08-13T05:31:32.031Z,-61
2017-08-13T05:33:59.368Z,-52
2017-08-13T05:36:26.889Z,-56
2017-08-13T05:38:54.279Z,-61
2017-08-13T05:41:21.467Z,-56
2017-08-13T05:43:49.204Z,-57
2017-08-13T05:46:16.373Z,-65
2017-08-13T05:48:43.805Z,-59
2017-08-13T05:51:11.260Z,-61
2017-08-13T05:53:39.031Z,-60
2017-08-13T05:56:06.216Z,-60
2017-08-13T05:58:33.724Z,-56
2017-08-13T06:01:01.087Z,-56
2017-08-13T06:03:28.544Z,-59
2017-08-13T06:05:56.128Z,-60
2017-08-13T06:08:23.311Z,-56
2017-08-13T06:10:50.609Z,-53
2017-08-13T06:13:18.131Z,-62
2017-08-13T06:15:45.310Z,-53
2017-08-13T06:18:12.742Z,-60
2017-08-13T06:20:40.310Z,-56
2017-08-13T06:23:07.497Z,-59
2017-08-13T06:25:34.736Z,-62
2017-08-13T06:28:02.510Z,-63
2017-08-13T06:30:30.154Z,-61
2017-08-13T06:32:57.732Z,-62
2017-08-13T06:35:24.923Z,-60
2017-08-13T06:37:52.111Z,-61
2017-08-13T06:40:19.351Z,-62
2017-08-13T06:42:46.535Z,-59
2017-08-13T06:45:13.719Z,-59
2017-08-13T06:47:40.916Z,-57
2017-08-13T06:50:08.388Z,-54
2017-08-13T06:52:35.576Z,-57
2017-08-13T06:55:02.745Z,-53
2017-08-13T06:57:30.173Z,-60
2017-08-13T06:59:57.361Z,-57
2017-08-13T07:02:24.959Z,-59
2017-08-13T07:04:52.212Z,-56
2017-08-13T07:07:19.668Z,-55
2017-08-13T07:09:47.012Z,-54
2017-08-13T07:12:14.593Z,-53
2017-08-13T07:14:41.765Z,-60
2017-08-13T07:17:09.506Z,-57
2017-08-13T07:19:36.687Z,-62
2017-08-13T07:22:04.110Z,-63
2017-08-13T07:24:31.570Z,-56
2017-08-13T07:26:59.086Z,-59
2017-08-13T07:29:26.270Z,-62
2017-08-13T07:31:53.696Z,-57
2017-08-13T07:34:20.893Z,-60
2017-08-13T07:36:48.076Z,-56
2017-08-13T07:39:15.599Z,-59
2017-08-13T07:41:42.916Z,-57
2017-08-13T07:44:10.409Z,-54
2017-08-13T07:46:37.751Z,-56
2017-08-13T07:49:04.929Z,-56
2017-08-13T07:51:32.436Z,-59
2017-08-13T07:53:59.830Z,-60
2017-08-13T07:56:27.005Z,-62
2017-08-13T07:58:54.177Z,-61
2017-08-13T08:01:21.683Z,-62
2017-08-13T08:03:48.866Z,-62
2017-08-13T08:06:16.181Z,-62
2017-08-13T08:08:43.711Z,-61
2017-08-13T08:11:11.097Z,-60
2017-08-13T08:13:38.274Z,-59
2017-08-13T08:16:05.814Z,-60
2017-08-13T08:18:33.161Z,-61
2017-08-13T08:21:00.626Z,-62
2017-08-13T08:23:27.811Z,-60
2017-08-13T08:25:54.981Z,-61
2017-08-13T08:28:22.377Z,-62
2017-08-13T08:30:49.559Z,-61
2017-08-13T08:33:16.729Z,-63
2017-08-13T08:35:44.205Z,-59
2017-08-13T08:38:11.377Z,-62
2017-08-13T08:40:38.549Z,-61
2017-08-13T08:43:05.733Z,-59
2017-08-13T08:45:33.039Z,-56
2017-08-13T08:48:00.213Z,-55
2017-08-13T08:50:27.404Z,-53
2017-08-13T08:52:54.593Z,-54
2017-08-13T08:55:21.951Z,-61
2017-08-13T08:57:49.142Z,-60
2017-08-13T09:00:16.560Z,-54
2017-08-13T09:02:44.073Z,-54
2017-08-13T09:05:11.256Z,-54
2017-08-13T09:07:38.626Z,-53
2017-08-13T09:10:05.798Z,-53
2017-08-13T09:12:33.229Z,-56
2017-08-13T09:15:00.684Z,-53
2017-08-13T09:17:27.868Z,-54
2017-08-13T09:19:55.050Z,-54
2017-08-13T09:22:22.515Z,-53
2017-08-13T09:24:49.901Z,-54
2017-08-13T09:27:17.361Z,-54
2017-08-13T09:29:44.533Z,-53
2017-08-13T09:32:11.722Z,-54
2017-08-13T09:34:38.893Z,-53
2017-08-13T09:37:06.079Z,-55
2017-08-13T09:39:33.287Z,-53
2017-08-13T09:42:00.471Z,-53
2017-08-13T09:44:27.640Z,-54
2017-08-13T09:46:54.870Z,-54
2017-08-13T09:49:22.060Z,-54
2017-08-13T09:51:49.577Z,-54
2017-08-13T09:54:16.934Z,-54
2017-08-13T09:56:44.106Z,-54
2017-08-13T09:59:11.282Z,-54
2017-08-13T10:01:39.000Z,-54
2017-08-13T10:04:06.452Z,-54
2017-08-13T10:06:33.833Z,-54
2017-08-13T10:09:01.015Z,-56
2017-08-13T10:11:28.199Z,-54
2017-08-13T10:13:55.378Z,-54
2017-08-13T10:16:22.812Z,-54
2017-08-13T10:18:50.272Z,-56
2017-08-13T10:21:17.474Z,-53
2017-08-13T10:23:44.672Z,-54
2017-08-13T10:26:11.846Z,-55
2017-08-13T10:28:39.040Z,-56
2017-08-13T10:31:06.336Z,-54
2017-08-13T10:33:33.851Z,-53
2017-08-13T10:36:01.038Z,-54
2017-08-13T10:38:28.212Z,-53
2017-08-13T10:40:55.550Z,-55
2017-08-13T10:43:22.758Z,-56
2017-08-13T10:45:50.148Z,-55
2017-08-13T10:48:17.336Z,-55
2017-08-13T10:50:44.824Z,-53
2017-08-13T10:53:11.993Z,-55
2017-08-13T10:55:39.175Z,-53
2017-08-13T10:58:06.578Z,-53
2017-08-13T11:00:33.758Z,-54
2017-08-13T11:03:00.924Z,-56
2017-08-13T11:05:28.179Z,-53
2017-08-13T11:07:55.363Z,-53
2017-08-13T11:10:22.641Z,-54
2017-08-13T11:12:49.816Z,-54
2017-08-13T11:15:17.004Z,-55
2017-08-13T11:17:44.543Z,-57
2017-08-13T11:20:11.732Z,-62
2017-08-13T11:22:38.916Z,-53
2017-08-13T11:25:06.092Z,-55
2017-08-13T11:27:33.539Z,-54
2017-08-13T11:30:01.183Z,-61
2017-08-13T11:32:28.376Z,-54
2017-08-13T11:34:55.608Z,-60
2017-08-13T11:37:23.377Z,-53
2017-08-13T11:39:50.871Z,-59
2017-08-13T11:42:18.471Z,-54
2017-08-13T11:44:45.641Z,-57
2017-08-13T11:47:12.896Z,-59
2017-08-13T11:49:40.351Z,-58
2017-08-13T11:52:07.564Z,-54
2017-08-13T11:54:35.273Z,-55
2017-08-13T11:57:03.035Z,-59
2017-08-13T11:59:30.489Z,-53
2017-08-13T12:01:57.660Z,-53
2017-08-13T12:04:25.411Z,-54
2017-08-13T12:06:52.599Z,-55
2017-08-13T12:09:19.770Z,-60
2017-08-13T12:11:47.472Z,-53
2017-08-13T12:14:14.974Z,-55
2017-08-13T12:16:42.375Z,-54
2017-08-13T12:19:09.549Z,-54
2017-08-13T12:21:36.718Z,-55
2017-08-13T12:24:03.885Z,-54
2017-08-13T12:26:31.075Z,-54
2017-08-13T12:28:58.507Z,-55
2017-08-13T12:31:25.999Z,-54
2017-08-13T12:33:53.352Z,-54
2017-08-13T12:36:20.536Z,-55
2017-08-13T12:38:47.705Z,-54
2017-08-13T12:41:15.107Z,-55
2017-08-13T12:43:42.295Z,-55
2017-08-13T12:46:09.461Z,-53
2017-08-13T12:48:37.049Z,-59
2017-08-13T12:51:04.539Z,-54
2017-08-13T12:53:31.708Z,-53
2017-08-13T12:55:59.124Z,-54
2017-08-13T12:58:26.389Z,-53
2017-08-13T13:00:53.561Z,-55
2017-08-13T13:03:20.744Z,-56
2017-08-13T13:05:48.146Z,-55
2017-08-13T13:08:15.711Z,-55
2017-08-13T13:10:43.254Z,-62
2017-08-13T13:13:10.832Z,-54
2017-08-13T13:15:38.283Z,-54
2017-08-13T13:18:05.737Z,-53
2017-08-13T13:20:33.252Z,-55
2017-08-13T13:23:00.421Z,-57
2017-08-13T13:25:27.602Z,-54
2017-08-13T13:27:54.952Z,-54
2017-08-13T13:30:22.140Z,-56
2017-08-13T13:32:49.562Z,-56
2017-08-13T13:35:16.751Z,-53
2017-08-13T13:37:44.188Z,-53
2017-08-13T13:40:11.361Z,-54
2017-08-13T13:42:38.957Z,-53
2017-08-13T13:45:06.233Z,-53
2017-08-13T13:47:33.415Z,-54
2017-08-13T13:50:00.912Z,-54
2017-08-13T13:52:28.085Z,-53
2017-08-13T13:54:55.497Z,-53
2017-08-13T13:57:22.681Z,-54
2017-08-13T13:59:50.367Z,-55
2017-08-13T14:02:17.554Z,-54
2017-08-13T14:04:45.282Z,-54
2017-08-13T14:07:12.537Z,-58
2017-08-13T14:09:39.705Z,-55
2017-08-13T14:12:06.888Z,-53
2017-08-13T14:14:34.056Z,-53
2017-08-13T14:17:01.647Z,-55
2017-08-13T14:19:28.832Z,-54
2017-08-13T14:21:56.342Z,-53
2017-08-13T14:24:23.513Z,-54
2017-08-13T14:26:51.127Z,-54
2017-08-13T14:29:19.065Z,-53
2017-08-13T14:31:46.233Z,-57
2017-08-13T14:34:13.416Z,-54
2017-08-13T14:36:40.605Z,-55
2017-08-13T14:39:07.988Z,-53
2017-08-13T14:41:35.295Z,-55
2017-08-13T14:44:03.060Z,-57
2017-08-13T14:46:30.824Z,-55
2017-08-13T14:48:57.997Z,-58
2017-08-13T14:51:25.604Z,-55
2017-08-13T14:53:52.788Z,-54
2017-08-13T14:56:19.972Z,-54
2017-08-13T14:58:47.492Z,-57
2017-08-13T15:01:15.050Z,-56
2017-08-13T15:03:42.239Z,-55
2017-08-13T15:06:09.409Z,-53
2017-08-13T15:08:36.705Z,-53
2017-08-13T15:11:03.894Z,-53
2017-08-13T15:13:31.065Z,-61
2017-08-13T15:15:58.580Z,-54
2017-08-13T15:18:25.909Z,-57
2017-08-13T15:20:53.440Z,-62
2017-08-13T15:23:20.632Z,-56
2017-08-13T15:25:47.817Z,-59
2017-08-13T15:28:15.141Z,-55
2017-08-13T15:30:42.794Z,-54
2017-08-13T15:33:09.979Z,-54
2017-08-13T15:35:37.224Z,-59
2017-08-13T15:38:04.652Z,-53
2017-08-13T15:40:31.825Z,-61
2017-08-13T15:42:59.036Z,-60
2017-08-13T15:45:26.408Z,-56
2017-08-13T15:47:53.745Z,-53
2017-08-13T15:50:21.024Z,-63
2017-08-13T15:52:48.470Z,-60
2017-08-13T15:55:15.787Z,-57
2017-08-13T15:57:42.953Z,-53
2017-08-13T16:00:10.324Z,-58
2017-08-13T16:02:37.497Z,-55
2017-08-13T16:05:04.665Z,-53
2017-08-13T16:07:32.050Z,-54
2017-08-13T16:09:59.218Z,-54
2017-08-13T16:12:26.595Z,-62
2017-08-13T16:14:53.780Z,-56
2017-08-13T16:17:21.205Z,-56
2017-08-13T16:19:48.393Z,-56
2017-08-13T16:22:15.809Z,-58
2017-08-13T16:24:42.996Z,-58
2017-08-13T16:27:10.340Z,-60
2017-08-13T16:29:37.632Z,-62
2017-08-13T16:32:04.801Z,-54
2017-08-13T16:34:32.191Z,-54
2017-08-13T16:36:59.738Z,-62
2017-08-13T16:39:26.910Z,-51
2017-08-13T16:41:56.751Z,-56
2017-08-13T16:44:24.540Z,-53
2017-08-13T16:46:52.208Z,-54
2017-08-13T16:49:20.002Z,-53
2017-08-13T16:51:47.182Z,-55
2017-08-13T16:54:14.354Z,-53
2017-08-13T16:56:41.828Z,-55
2017-08-13T16:59:09.015Z,-54
2017-08-13T17:01:36.200Z,-53
2017-08-13T17:04:03.581Z,-54
2017-08-13T17:06:31.073Z,-55
2017-08-13T17:08:58.278Z,-56
2017-08-13T17:11:25.569Z,-57
2017-08-13T17:13:53.662Z,-54
2017-08-13T17:16:21.099Z,-55
2017-08-13T17:18:48.261Z,-58
2017-08-13T17:21:15.779Z,-54
2017-08-13T17:23:42.958Z,-54
2017-08-13T17:26:10.147Z,-57
2017-08-13T17:28:37.957Z,-54
2017-08-13T17:31:05.131Z,-53
2017-08-13T17:33:32.323Z,-54
2017-08-13T17:35:59.586Z,-55
2017-08-13T17:38:26.769Z,-55
2017-08-13T17:40:54.137Z,-53
2017-08-13T17:43:21.593Z,-53
2017-08-13T17:45:49.231Z,-54
2017-08-13T17:48:16.723Z,-54
2017-08-13T17:50:44.278Z,-58
2017-08-13T17:53:11.728Z,-53
2017-08-13T17:55:39.494Z,-53
2017-08-13T17:58:07.054Z,-53
2017-08-13T18:00:36.001Z,-57
2017-08-13T18:03:05.791Z,-54
2017-08-13T18:05:36.335Z,-54
2017-08-13T18:08:06.437Z,-54
2017-08-13T18:10:37.456Z,-57
2017-08-13T18:13:07.354Z,-54
2017-08-13T18:15:36.896Z,-59
2017-08-13T18:34:09.358Z,-54
2017-08-13T18:36:36.815Z,-53
2017-08-13T18:39:04.577Z,-54
2017-08-13T18:41:31.759Z,-53
2017-08-13T18:43:58.941Z,-54
2017-08-13T18:46:26.333Z,-53
2017-08-13T18:48:54.100Z,-53
2017-08-13T18:51:21.760Z,-56
2017-08-13T18:53:49.178Z,-54
2017-08-13T18:56:16.996Z,-54
2017-08-13T18:58:44.236Z,-56
2017-08-13T19:01:11.979Z,-53
2017-08-13T19:03:39.568Z,-53
2017-08-13T19:06:07.528Z,-56
2017-08-13T19:08:35.480Z,-54
2017-08-13T19:11:03.116Z,-53
2017-08-13T19:13:30.715Z,-52
2017-08-13T19:15:58.164Z,-55
2017-08-13T19:18:25.550Z,-58
2017-08-13T19:20:52.879Z,-54
2017-08-13T19:23:20.559Z,-54
2017-08-13T19:25:47.838Z,-53
2017-08-13T19:28:15.447Z,-53
2017-08-13T19:30:42.718Z,-54
2017-08-13T19:33:09.898Z,-53
2017-08-13T19:35:38.178Z,-58
2017-08-13T19:38:06.930Z,-58
2017-08-13T19:40:34.373Z,-54
2017-08-13T19:43:01.859Z,-54
2017-08-13T19:45:29.306Z,-53
2017-08-13T19:47:57.239Z,-56
2017-08-13T19:50:24.515Z,-53
2017-08-13T19:52:52.074Z,-54
2017-08-13T19:55:19.596Z,-53
2017-08-13T19:57:46.960Z,-54
2017-08-13T20:00:16.874Z,-53
2017-08-13T20:02:46.810Z,-56
2017-08-13T20:05:17.575Z,-53
2017-08-13T20:30:20.570Z,-53
2017-08-13T20:32:47.828Z,-53
2017-08-13T20:35:15.928Z,-53
2017-08-13T20:37:43.381Z,-53
2017-08-13T20:40:10.956Z,-53
2017-08-13T20:42:38.286Z,-53
2017-08-13T20:45:05.840Z,-54
2017-08-13T20:47:33.205Z,-53
2017-08-13T20:50:01.900Z,-55
2017-08-13T20:52:29.665Z,-53
2017-08-13T20:54:57.121Z,-53
2017-08-13T20:57:24.880Z,-53
2017-08-13T20:59:52.269Z,-53
2017-08-13T21:02:19.892Z,-53
2017-08-13T21:04:47.230Z,-53
2017-08-13T21:07:14.428Z,-53
2017-08-13T21:09:42.478Z,-53
2017-08-13T21:12:10.059Z,-54
2017-08-13T21:14:39.110Z,-53
2017-08-13T21:17:08.339Z,-53
2017-08-13T21:19:35.680Z,-53
2017-08-13T21:22:03.329Z,-53
2017-08-13T21:24:30.602Z,-53
2017-08-13T21:26:58.289Z,-53
2017-08-13T21:29:26.664Z,-54
2017-08-13T21:31:54.248Z,-53
2017-08-13T21:34:21.869Z,-53
2017-08-13T21:36:49.311Z,-53
2017-08-13T21:39:16.497Z,-53
2017-08-13T21:41:44.031Z,-53
2017-08-13T21:44:11.288Z,-53
2017-08-13T21:46:38.780Z,-53
2017-08-13T21:49:06.301Z,-53
2017-08-13T21:51:33.862Z,-53
2017-08-13T21:54:01.336Z,-53
2017-08-13T21:56:28.848Z,-53
2017-08-13T21:58:56.592Z,-53
2017-08-13T22:01:24.061Z,-53
2017-08-13T22:03:51.775Z,-53
2017-08-13T22:06:19.220Z,-53
2017-08-13T22:08:47.066Z,-53
2017-08-13T22:11:14.581Z,-53
2017-08-13T22:13:42.201Z,-53
2017-08-13T22:16:11.299Z,-54
2017-08-13T22:18:38.866Z,-53
2017-08-13T22:21:06.486Z,-53
2017-08-13T22:23:33.867Z,-53
2017-08-13T22:26:01.329Z,-53
2017-08-13T22:28:28.980Z,-53
2017-08-13T22:30:56.168Z,-53
2017-08-13T22:33:23.341Z,-53
2017-08-13T22:35:50.549Z,-53
2017-08-13T22:38:17.995Z,-53
2017-08-13T22:40:45.168Z,-53
2017-08-13T22:43:12.917Z,-53
2017-08-13T22:45:40.112Z,-53
2017-08-13T22:48:07.317Z,-54
2017-08-13T22:50:34.914Z,-53
2017-08-13T22:53:02.107Z,-53
2017-08-13T22:55:30.075Z,-53
2017-08-13T22:57:57.539Z,-53
2017-08-13T23:00:24.722Z,-53
2017-08-13T23:02:51.946Z,-53
2017-08-13T23:05:19.145Z,-52
2017-08-13T23:07:46.553Z,-53
2017-08-13T23:10:13.735Z,-53
2017-08-13T23:12:41.172Z,-53
2017-08-13T23:15:08.628Z,-53
2017-08-13T23:17:36.089Z,-52
2017-08-13T23:20:03.651Z,-53
2017-08-13T23:22:31.118Z,-53
2017-08-13T23:24:58.456Z,-53
2017-08-13T23:27:25.976Z,-54
2017-08-13T23:29:53.179Z,-53
2017-08-13T23:32:20.522Z,-53
2017-08-13T23:34:47.689Z,-53
2017-08-13T23:37:15.128Z,-53
2017-08-13T23:39:42.574Z,-53
2017-08-13T23:42:09.767Z,-52
2017-08-13T23:44:36.933Z,-53
2017-08-13T23:47:04.470Z,-53
2017-08-13T23:49:31.987Z,-53
2017-08-13T23:51:59.176Z,-53
2017-08-13T23:54:26.412Z,-53
2017-08-13T23:56:53.966Z,-53
2017-08-13T23:59:21.508Z,-53
